HMN weather

Holloman Air Force Base
Alamogordo, New Mexico, United States

Public forecast

Using degrees Fahrenheit for public forecast. Weather courtesy of forecast.io.

METAR (pilot weather report)

Retrieved 2019/04/21 04:58 UTC (48 minutes ago):

KHMN 210458Z AUTO 24013KT 10SM CLR 23/M06 A2991 RMK AO2 SLP061 T02271062 $

TAF (pilot weather forecast)

Forecast is more than 12 hours old.

Retrieved 2019/04/20 01:09 UTC (1 day ago):

TAF TAF KHMN 200104Z 2001/2107 VRB06KT 9999 SKC QNH3008INS BECMG 2020/2021 22015G25KT 9999 FEW150 QNH2990INS BECMG 2102/2103 21009KT 9999 SKC QNH2993INS TX28/2023Z TN11/2012Z LAST NO AMDS AFT 2001 NEXT 2201